sensor_id;sensor_type;location;lat;lon;timestamp;pressure;altitude;pressure_sealevel;temperature;humidity
55014;BME280;40916;51.632;5.552;2023-03-23T00:00:25;998.508712634315;;;11.722143355465985;0
55014;BME280;40916;51.632;5.552;2023-03-23T00:01:26;998.510382993323;;;11.735625819481498;0
55014;BME280;40916;51.632;5.552;2023-03-23T00:02:27;998.3853091954333;;;11.708659255485756;0
55014;BME280;40916;51.632;5.552;2023-03-23T00:03:26;998.4443281376624;;;11.708659255485756;0
55014;BME280;40916;51.632;5.552;2023-03-23T00:04:26;998.457400967127;;;11.695173518527554;0
55014;BME280;40916;51.632;5.552;2023-03-23T00:05:26;998.3799408743906;;;11.695173518527554;0
55014;BME280;40916;51.632;5.552;2023-03-23T00:06:27;998.4562326636187;;;11.71540151003477;0
55014;BME280;40916;51.632;5.552;2023-03-23T00:07:26;998.4517055075987;;;11.708659255485756;0
55014;BME280;40916;51.632;5.552;2023-03-23T00:08:26;998.5861773578168;;;11.722143355465985;0
55014;BME280;40916;51.632;5.552;2023-03-23T00:09:26;998.5680583341592;;;11.695173518527554;0
55014;BME280;40916;51.632;5.552;2023-03-23T00:10:26;998.5947221699261;;;11.70191659169226;0
55014;BME280;40916;51.632;5.552;2023-03-23T00:11:27;998.5771208698751;;;11.708659255485756;0
55014;BME280;40916;51.632;5.552;2023-03-23T00:12:27;998.5878499890323;;;11.735625819481498;0
55014;BME280;40916;51.632;5.552;2023-03-23T00:13:27;998.5886838762651;;;11.742366438318896;0
55014;BME280;40916;51.632;5.552;2023-03-23T00:14:27;998.630095306383;;;11.749106648544704;0
55014;BME280;40916;51.632;5.552;2023-03-23T00:15:27;998.4509892726481;;;11.762585843667186;0
55014;BME280;40916;51.632;5.552;2023-03-23T00:16:28;998.474773733988;;;11.776063405859688;0
55014;BME280;40916;51.632;5.552;2023-03-23T00:17:28;998.3476940261605;;;11.762585843667186;0
55014;BME280;40916;51.632;5.552;2023-03-23T00:18:27;998.3247342038354;;;11.755846450285343;0
55014;BME280;40916;51.632;5.552;2023-03-23T00:19:27;998.3845851748298;;;11.762585843667186;0
55014;BME280;40916;51.632;5.552;2023-03-23T00:20:27;998.4546783903328;;;11.762585843667186;0
55014;BME280;40916;51.632;5.552;2023-03-23T00:21:28;998.4362328031093;;;11.762585843667186;0
55014;BME280;40916;51.632;5.552;2023-03-23T00:22:28;998.4895306409774;;;11.776063405859688;0
55014;BME280;40916;51.632;5.552;2023-03-23T00:23:28;998.5005983224785;;;11.776063405859688;0
55014;BME280;40916;51.632;5.552;2023-03-23T00:24:28;998.491569573772;;;11.762585843667186;0
55014;BME280;40916;51.632;5.552;2023-03-23T00:25:28;998.654719258562;;;11.769324828816544;0
55014;BME280;40916;51.632;5.552;2023-03-23T00:26:28;998.6325841909056;;;11.769324828816544;0
55014;BME280;40916;51.632;5.552;2023-03-23T00:27:28;998.5743828933973;;;11.776063405859688;0
55014;BME280;40916;51.632;5.552;2023-03-23T00:28:28;998.6867092919631;;;11.789539336132123;0
55014;BME280;40916;51.632;5.552;2023-03-23T00:29:28;998.6994206301304;;;11.80301363549357;0
55014;BME280;40916;51.632;5.552;2023-03-23T00:30:28;998.5592216169604;;;11.80301363549357;0
55014;BME280;40916;51.632;5.552;2023-03-23T00:31:29;998.6083777256382;;;11.843426758190308;0
55014;BME280;40916;51.632;5.552;2023-03-23T00:32:29;998.5227045042168;;;11.836692255276198;0
55014;BME280;40916;51.632;5.552;2023-03-23T00:33:30;998.5952328876165;;;11.856894543981976;0
55014;BME280;40916;51.632;5.552;2023-03-23T00:34:29;998.5288150880635;;;11.856894543981976;0
55014;BME280;40916;51.632;5.552;2023-03-23T00:35:29;998.5607417633083;;;11.877093174461947;0
55014;BME280;40916;51.632;5.552;2023-03-23T00:36:29;998.5365077816198;;;11.89055689744092;0
55014;BME280;40916;51.632;5.552;2023-03-23T00:37:29;998.489831115199;;;11.870360703895592;0
55014;BME280;40916;51.632;5.552;2023-03-23T00:38:29;998.5312214491746;;;11.877093174461947;0
55014;BME280;40916;51.632;5.552;2023-03-23T00:39:29;998.6579608451007;;;11.856894543981976;0
55014;BME280;40916;51.632;5.552;2023-03-23T00:40:29;998.5919979445049;;;11.829957345515663;0
55014;BME280;40916;51.632;5.552;2023-03-23T00:41:30;998.611257684664;;;11.836692255276198;0
55014;BME280;40916;51.632;5.552;2023-03-23T00:42:29;998.5793021299919;;;11.816486304952278;0
55014;BME280;40916;51.632;5.552;2023-03-23T00:43:30;998.6821731740517;;;11.843426758190308;0
55014;BME280;40916;51.632;5.552;2023-03-23T00:44:30;998.6399635689392;;;11.829957345515663;0
55014;BME280;40916;51.632;5.552;2023-03-23T00:45:30;998.6297062726192;;;11.836692255276198;0
55014;BME280;40916;51.632;5.552;2023-03-23T00:46:30;998.6399635689392;;;11.829957345515663;0
55014;BME280;40916;51.632;5.552;2023-03-23T00:47:30;998.6207020482306;;;11.823222028782954;0
55014;BME280;40916;51.632;5.552;2023-03-23T00:48:30;998.6657912212606;;;11.829957345515663;0
55014;BME280;40916;51.632;5.552;2023-03-23T00:49:30;998.5551013241168;;;11.829957345515663;0
55014;BME280;40916;51.632;5.552;2023-03-23T00:50:30;998.5292736969811;;;11.829957345515663;0
55014;BME280;40916;51.632;5.552;2023-03-23T00:51:30;998.4579031358177;;;11.850160854383688;0
55014;BME280;40916;51.632;5.552;2023-03-23T00:52:31;998.4439479563005;;;11.856894543981976;0
55014;BME280;40916;51.632;5.552;2023-03-23T00:53:31;998.5004015090324;;;11.897288150104256;0
55014;BME280;40916;51.632;5.552;2023-03-23T00:54:31;998.508575598214;;;11.90401899705055;0
55014;BME280;40916;51.632;5.552;2023-03-23T00:55:31;998.4613936833081;;;11.910749438405027;0
55014;BME280;40916;51.632;5.552;2023-03-23T00:56:31;998.4155269455156;;;11.897288150104256;0
55014;BME280;40916;51.632;5.552;2023-03-23T00:57:31;998.4729788774731;;;11.883825238935263;0
55014;BME280;40916;51.632;5.552;2023-03-23T00:58:31;998.4487387236817;;;11.897288150104256;0
55014;BME280;40916;51.632;5.552;2023-03-23T00:59:31;998.4914293334691;;;11.883825238935263;0
55014;BME280;40916;51.632;5.552;2023-03-23T01:00:31;998.478761165441;;;11.870360703895592;0
55014;BME280;40916;51.632;5.552;2023-03-23T01:01:31;998.5546442277162;;;11.856894543981976;0
55014;BME280;40916;51.632;5.552;2023-03-23T01:03:32;998.3612285453219;;;11.782801574922829;0
55014;BME280;40916;51.632;5.552;2023-03-23T01:04:32;998.3202184421915;;;11.749106648544704;0
55014;BME280;40916;51.632;5.552;2023-03-23T01:05:33;998.2914151188459;;;11.695173518527554;0
55014;BME280;40916;51.632;5.552;2023-03-23T01:06:33;998.2880415847213;;;11.668197129620047;0
55014;BME280;40916;51.632;5.552;2023-03-23T01:07:32;998.1918473956453;;;11.607476256846116;0
55014;BME280;40916;51.632;5.552;2023-03-23T01:08:32;998.151518135321;;;11.580478517871668;0
55014;BME280;40916;51.632;5.552;2023-03-23T01:09:32;998.1573553590651;;;11.539969557009776;0
55014;BME280;40916;51.632;5.552;2023-03-23T01:10:32;998.1410099921077;;;11.499445748712237;0
55014;BME280;40916;51.632;5.552;2023-03-23T01:11:32;998.0138816668972;;;11.48593450839936;0
55014;BME280;40916;51.632;5.552;2023-03-23T01:12:32;998.0609227747735;;;11.47917826812537;0
55014;BME280;40916;51.632;5.552;2023-03-23T01:13:33;998.0424886169304;;;11.47917826812537;0
55014;BME280;40916;51.632;5.552;2023-03-23T01:14:32;998.0443941814494;;;11.465664546699895;0
55014;BME280;40916;51.632;5.552;2023-03-23T01:15:33;998.0241733098167;;;11.452149169913977;0
55014;BME280;40916;51.632;5.552;2023-03-23T01:16:33;998.0886348655478;;;11.465664546699895;0
55014;BME280;40916;51.632;5.552;2023-03-23T01:17:33;998.1549959240258;;;11.465664546699895;0
55014;BME280;40916;51.632;5.552;2023-03-23T01:18:33;998.1255021154681;;;11.465664546699895;0
55014;BME280;40916;51.632;5.552;2023-03-23T01:19:33;998.0942189957724;;;11.452149169913977;0
55014;BME280;40916;51.632;5.552;2023-03-23T01:20:34;997.9246347778143;;;11.452149169913977;0
55014;BME280;40916;51.632;5.552;2023-03-23T01:21:33;997.8231910196009;;;11.465664546699895;0
55014;BME280;40916;51.632;5.552;2023-03-23T01:22:33;997.7568301551056;;;11.465664546699895;0
55014;BME280;40916;51.632;5.552;2023-03-23T01:23:34;997.777170446404;;;11.452149169913977;0
55014;BME280;40916;51.632;5.552;2023-03-23T01:24:33;997.8084441574715;;;11.465664546699895;0
55014;BME280;40916;51.632;5.552;2023-03-23T01:25:34;997.760516868782;;;11.465664546699895;0
55014;BME280;40916;51.632;5.552;2023-03-23T01:26:34;997.7438556769603;;;11.47917826812537;0
55014;BME280;40916;51.632;5.552;2023-03-23T01:27:34;997.6774929081082;;;11.47917826812537;0
55014;BME280;40916;51.632;5.552;2023-03-23T01:28:34;997.8193601463452;;;11.492690335218843;0
55014;BME280;40916;51.632;5.552;2023-03-23T01:29:34;997.8248086743162;;;11.506200749007917;0
55014;BME280;40916;51.632;5.552;2023-03-23T01:30:34;997.8081280009013;;;11.519709510519334;0
55014;BME280;40916;51.632;5.552;2023-03-23T01:31:34;997.7601950778197;;;11.519709510519334;0
55014;BME280;40916;51.632;5.552;2023-03-23T01:32:34;997.7500075891481;;;11.526463271991549;0
55014;BME280;40916;51.632;5.552;2023-03-23T01:33:34;997.6161872995746;;;11.546722080811943;0
55014;BME280;40916;51.632;5.552;2023-03-23T01:34:35;997.6701517449159;;;11.593978210171134;0
55014;BME280;40916;51.632;5.552;2023-03-23T01:35:36;997.6554007863992;;;11.593978210171134;0
55014;BME280;40916;51.632;5.552;2023-03-23T01:36:35;997.7387988801694;;;11.641214180620704;0
55014;BME280;40916;51.632;5.552;2023-03-23T01:37:35;997.7974913999078;;;11.668197129620047;0
55014;BME280;40916;51.632;5.552;2023-03-23T01:38:35;997.7012451795827;;;11.695173518527554;0
55014;BME280;40916;51.632;5.552;2023-03-23T01:39:35;997.6869382324724;;;11.728884791906037;0
55014;BME280;40916;51.632;5.552;2023-03-23T01:40:35;997.5824197894711;;;11.749106648544704;0
55014;BME280;40916;51.632;5.552;2023-03-23T01:41:35;997.5922408799889;;;11.769324828816544;0
55014;BME280;40916;51.632;5.552;2023-03-23T01:42:36;997.7021008652857;;;11.762585843667186;0
55014;BME280;40916;51.632;5.552;2023-03-23T01:43:35;997.7578077191438;;;11.796276689613684;0
55014;BME280;40916;51.632;5.552;2023-03-23T01:45:36;997.6926604088686;;;11.776063405859688;0
55014;BME280;40916;51.632;5.552;2023-03-23T01:45:39;997.7311738669029;;;11.789539336132123;0
55014;BME280;40916;51.632;5.552;2023-03-23T01:46:36;997.7414317236868;;;11.782801574922829;0
55014;BME280;40916;51.632;5.552;2023-03-23T01:47:36;997.8209680242411;;;11.769324828816544;0
55014;BME280;40916;51.632;5.552;2023-03-23T01:48:36;997.8508503034751;;;11.80301363549357;0
55014;BME280;40916;51.632;5.552;2023-03-23T01:49:37;997.6647662984628;;;11.789539336132123;0
55014;BME280;40916;51.632;5.552;2023-03-23T01:50:37;997.7225254989794;;;11.809750173897783;0
55014;BME280;40916;51.632;5.552;2023-03-23T01:51:37;997.6527310021479;;;11.843426758190308;0
55014;BME280;40916;51.632;5.552;2023-03-23T01:52:36;997.7739765865529;;;11.870360703895592;0
55014;BME280;40916;51.632;5.552;2023-03-23T01:53:37;997.6508759644125;;;11.89055689744092;0
55014;BME280;40916;51.632;5.552;2023-03-23T01:54:36;997.7272135301653;;;11.944395565679603;0
55014;BME280;40916;51.632;5.552;2023-03-23T01:55:37;997.6784645234159;;;11.937667150407567;0
55014;BME280;40916;51.632;5.552;2023-03-23T01:56:38;997.7656603936049;;;11.957851181823973;0
55014;BME280;40916;51.632;5.552;2023-03-23T01:57:37;997.6231070818169;;;11.937667150407567;0
55014;BME280;40916;51.632;5.552;2023-03-23T01:58:37;997.7169126399626;;;11.951123576110117;0
55014;BME280;40916;51.632;5.552;2023-03-23T01:59:37;997.5825116418025;;;11.937667150407567;0
55014;BME280;40916;51.632;5.552;2023-03-23T02:00:37;997.6224908270085;;;11.964578382945994;0
55014;BME280;40916;51.632;5.552;2023-03-23T02:01:37;997.5589835227213;;;11.957851181823973;0
55014;BME280;40916;51.632;5.552;2023-03-23T02:02:37;997.528057058444;;;11.978031571913537;0
55014;BME280;40916;51.632;5.552;2023-03-23T02:03:38;997.5303320438155;;;11.998208324043556;0
55014;BME280;40916;51.632;5.552;2023-03-23T02:04:37;997.5628724652003;;;12.025105006980983;0
55014;BME280;40916;51.632;5.552;2023-03-23T02:05:39;997.5340916221062;;;12.03182816903831;0
55014;BME280;40916;51.632;5.552;2023-03-23T02:06:38;997.4735343765765;;;12.01838144157718;0
55014;BME280;40916;51.632;5.552;2023-03-23T02:07:38;997.4580657971521;;;12.045273283610474;0
55014;BME280;40916;51.632;5.552;2023-03-23T02:08:38;997.3930776342268;;;12.025105006980983;0
55014;BME280;40916;51.632;5.552;2023-03-23T02:09:38;997.4285349758622;;;12.045273283610474;0
55014;BME280;40916;51.632;5.552;2023-03-23T02:10:38;997.3598803405092;;;12.058716786287096;0
55014;BME280;40916;51.632;5.552;2023-03-23T02:11:38;997.3502802783631;;;12.07215867806078;0
55014;BME280;40916;51.632;5.552;2023-03-23T02:12:38;997.4528878450602;;;12.099037632865684;0
55014;BME280;40916;51.632;5.552;2023-03-23T02:13:38;997.392356604818;;;12.085598959923317;0
55014;BME280;40916;51.632;5.552;2023-03-23T02:14:38;997.4676549833786;;;12.099037632865684;0
55014;BME280;40916;51.632;5.552;2023-03-23T02:15:43;997.3480565189006;;;12.085598959923317;0
55014;BME280;40916;51.632;5.552;2023-03-23T02:16:40;997.4159700076698;;;12.099037632865684;0
55014;BME280;40916;51.632;5.552;2023-03-23T02:17:40;997.3140988478048;;;12.078879020168987;0
55014;BME280;40916;51.632;5.552;2023-03-23T02:18:42;997.3775899075911;;;12.085598959923317;0
55014;BME280;40916;51.632;5.552;2023-03-23T02:19:41;997.1620106020174;;;12.07215867806078;0
55014;BME280;40916;51.632;5.552;2023-03-23T02:20:46;997.2181168181671;;;12.078879020168987;0
55014;BME280;40916;51.632;5.552;2023-03-23T02:22:16;997.2823369565155;;;12.092318497447618;0
55014;BME280;40916;51.632;5.552;2023-03-23T02:22:49;997.2852980934472;;;12.085598959923317;0
55014;BME280;40916;51.632;5.552;2023-03-23T02:23:45;997.2675939328359;;;12.058716786287096;0
55014;BME280;40916;51.632;5.552;2023-03-23T02:24:45;997.2845723320956;;;12.045273283610474;0
55014;BME280;40916;51.632;5.552;2023-03-23T02:25:52;997.3355140179524;;;12.07215867806078;0
55014;BME280;40916;51.632;5.552;2023-03-23T02:26:43;997.3443648458547;;;12.085598959923317;0
55014;BME280;40916;51.632;5.552;2023-03-23T02:27:48;997.270531410148;;;12.085598959923317;0
55014;BME280;40916;51.632;5.552;2023-03-23T02:29:02;997.3118707594135;;;12.092318497447618;0
55014;BME280;40916;51.632;5.552;2023-03-23T02:29:45;997.2963731071824;;;12.085598959923317;0
55014;BME280;40916;51.632;5.552;2023-03-23T02:30:43;997.3901275286406;;;12.099037632865684;0
55014;BME280;40916;51.632;5.552;2023-03-23T02:31:43;997.5266700159319;;;12.132627282691814;0
55014;BME280;40916;51.632;5.552;2023-03-23T02:32:45;997.3700685453115;;;12.152776255224556;0
55014;BME280;40916;51.632;5.552;2023-03-23T02:33:43;997.3389796623512;;;12.172921618807809;0
55014;BME280;40916;51.632;5.552;2023-03-23T02:34:41;997.3108591984726;;;12.186349857868056;0
55014;BME280;40916;51.632;5.552;2023-03-23T02:35:41;997.2835940740403;;;12.172921618807809;0
55014;BME280;40916;51.632;5.552;2023-03-23T02:36:42;997.400893494558;;;12.199776495414596;0
55014;BME280;40916;51.632;5.552;2023-03-23T02:37:42;997.3595690232048;;;12.193063376769015;0
55014;BME280;40916;51.632;5.552;2023-03-23T02:38:42;997.4124853218642;;;12.240046808808874;0
55014;BME280;40916;51.632;5.552;2023-03-23T02:39:42;997.3474004313599;;;12.253467050133455;0
55014;BME280;40916;51.632;5.552;2023-03-23T02:40:42;997.310215323635;;;12.287010670457896;0
55014;BME280;40916;51.632;5.552;2023-03-23T02:41:42;997.3004992636859;;;12.300425327963971;0
55014;BME280;40916;51.632;5.552;2023-03-23T02:42:42;997.3300464301592;;;12.300425327963971;0
55014;BME280;40916;51.632;5.552;2023-03-23T02:43:42;997.3018567197898;;;12.313838392295484;0
55014;BME280;40916;51.632;5.552;2023-03-23T02:44:42;997.2588845119135;;;12.3272498644297;0
55014;BME280;40916;51.632;5.552;2023-03-23T02:45:42;997.205825682189;;;12.313838392295484;0
55014;BME280;40916;51.632;5.552;2023-03-23T02:46:42;997.272308699567;;;12.313838392295484;0
55014;BME280;40916;51.632;5.552;2023-03-23T02:47:42;997.2427606870361;;;12.313838392295484;0
55014;BME280;40916;51.632;5.552;2023-03-23T02:48:42;997.2293356418834;;;12.3272498644297;0
55014;BME280;40916;51.632;5.552;2023-03-23T02:49:42;997.1232164263645;;;12.300425327963971;0
55014;BME280;40916;51.632;5.552;2023-03-23T02:50:42;997.1873581842724;;;12.313838392295484;0
55014;BME280;40916;51.632;5.552;2023-03-23T02:51:43;997.1296082623224;;;12.3272498644297;0
55014;BME280;40916;51.632;5.552;2023-03-23T02:52:42;997.2337014049577;;;12.333955003727993;0
55014;BME280;40916;51.632;5.552;2023-03-23T02:53:42;997.3599583898632;;;12.340659745343078;0
55014;BME280;40916;51.632;5.552;2023-03-23T02:54:43;997.3129372293564;;;12.313838392295484;0
55014;BME280;40916;51.632;5.552;2023-03-23T02:55:43;997.3233394821655;;;12.307132059215451;0
55014;BME280;40916;51.632;5.552;2023-03-23T02:56:43;997.4062408521737;;;12.287010670457896;0
55014;BME280;40916;51.632;5.552;2023-03-23T02:57:43;997.3293648912576;;;12.293718198418865;0
55014;BME280;40916;51.632;5.552;2023-03-23T02:58:43;997.3176018998693;;;12.287010670457896;0
55014;BME280;40916;51.632;5.552;2023-03-23T02:59:43;997.2762917767059;;;12.280302743958782;0
55014;BME280;40916;51.632;5.552;2023-03-23T03:00:43;997.2513819510226;;;12.253467050133455;0
55014;BME280;40916;51.632;5.552;2023-03-23T03:01:52;997.2197596034898;;;12.233336089114605;0
55014;BME280;40916;51.632;5.552;2023-03-23T03:02:44;997.2271453124231;;;12.233336089114605;0
55014;BME280;40916;51.632;5.552;2023-03-23T03:03:43;997.275847568886;;;12.240046808808874;0
55014;BME280;40916;51.632;5.552;2023-03-23T03:04:45;997.2668442255559;;;12.260176572008984;0
55014;BME280;40916;51.632;5.552;2023-03-23T03:05:44;997.2756062289686;;;12.273594418799188;0
55014;BME280;40916;51.632;5.552;2023-03-23T03:06:45;997.1758904340563;;;12.273594418799188;0
55014;BME280;40916;51.632;5.552;2023-03-23T03:07:47;997.2914523984779;;;12.320544327326207;0
55014;BME280;40916;51.632;5.552;2023-03-23T03:08:45;997.3105950529757;;;12.3272498644297;0
55014;BME280;40916;51.632;5.552;2023-03-23T03:09:46;997.1044233007798;;;12.333955003727993;0
55014;BME280;40916;51.632;5.552;2023-03-23T03:10:46;997.2602279899986;;;12.340659745343078;0
55014;BME280;40916;51.632;5.552;2023-03-23T03:11:45;997.243096008301;;;12.354068036011295;0
55014;BME280;40916;51.632;5.552;2023-03-23T03:12:46;997.2639217069495;;;12.340659745343078;0
55014;BME280;40916;51.632;5.552;2023-03-23T03:13:45;997.2360490647446;;;12.320544327326207;0
55014;BME280;40916;51.632;5.552;2023-03-23T03:14:46;997.2796957039016;;;12.313838392295484;0
55014;BME280;40916;51.632;5.552;2023-03-23T03:15:45;997.294469714013;;;12.313838392295484;0
55014;BME280;40916;51.632;5.552;2023-03-23T03:16:45;997.3314047477045;;;12.313838392295484;0
55014;BME280;40916;51.632;5.552;2023-03-23T03:17:46;997.299514220765;;;12.3272498644297;0
55014;BME280;40916;51.632;5.552;2023-03-23T03:18:46;997.4670763243561;;;12.340659745343078;0
55014;BME280;40916;51.632;5.552;2023-03-23T03:19:45;997.3703669894747;;;12.333955003727993;0
55014;BME280;40916;51.632;5.552;2023-03-23T03:20:45;997.3636521100594;;;12.340659745343078;0
55014;BME280;40916;51.632;5.552;2023-03-23T03:21:45;997.364992263582;;;12.354068036011295;0
55014;BME280;40916;51.632;5.552;2023-03-23T03:22:45;997.3119400382495;;;12.340659745343078;0
55014;BME280;40916;51.632;5.552;2023-03-23T03:23:45;997.2343719747076;;;12.340659745343078;0
55014;BME280;40916;51.632;5.552;2023-03-23T03:24:45;997.2632507065863;;;12.333955003727993;0
55014;BME280;40916;51.632;5.552;2023-03-23T03:25:45;997.3330806661058;;;12.367474737409221;0
55014;BME280;40916;51.632;5.552;2023-03-23T03:26:46;997.3132786847481;;;12.354068036011295;0
55014;BME280;40916;51.632;5.552;2023-03-23T03:27:46;997.3384665633922;;;12.347364089396887;0
55014;BME280;40916;51.632;5.552;2023-03-23T03:28:46;997.3126101536658;;;12.347364089396887;0
55014;BME280;40916;51.632;5.552;2023-03-23T03:29:47;997.4509054527682;;;12.400984544236909;0
55014;BME280;40916;51.632;5.552;2023-03-23T03:30:47;997.445890996081;;;12.387581811754881;0
55014;BME280;40916;51.632;5.552;2023-03-23T03:31:46;997.4797992962775;;;12.394283376289696;0
55014;BME280;40916;51.632;5.552;2023-03-23T03:32:47;997.4196248151605;;;12.42108566976755;0
55014;BME280;40916;51.632;5.552;2023-03-23T03:33:46;997.3444297401891;;;12.407685315718005;0
55014;BME280;40916;51.632;5.552;2023-03-23T03:34:46;997.3531262194691;;;12.42108566976755;0
55014;BME280;40916;51.632;5.552;2023-03-23T03:35:46;997.2929153345805;;;12.447881625613125;0
55014;BME280;40916;51.632;5.552;2023-03-23T03:36:47;997.405685982799;;;12.467974438093314;0
55014;BME280;40916;51.632;5.552;2023-03-23T03:37:47;997.2713919223967;;;12.454579625228853;0
55014;BME280;40916;51.632;5.552;2023-03-23T03:38:47;997.3472105013826;;;12.47467125158408;0
55014;BME280;40916;51.632;5.552;2023-03-23T03:39:47;997.3884926668258;;;12.481367669941804;0
55014;BME280;40916;51.632;5.552;2023-03-23T03:40:47;997.3250417323019;;;12.47467125158408;0
55014;BME280;40916;51.632;5.552;2023-03-23T03:41:47;997.31026255532;;;12.47467125158408;0
55014;BME280;40916;51.632;5.552;2023-03-23T03:42:47;997.3298611249537;;;12.447881625613125;0
55014;BME280;40916;51.632;5.552;2023-03-23T03:43:47;997.35377783067;;;12.427785252578719;0
55014;BME280;40916;51.632;5.552;2023-03-23T03:44:47;997.3235713005558;;;12.42108566976755;0
55014;BME280;40916;51.632;5.552;2023-03-23T03:45:47;997.3081412978644;;;12.414385690854424;0
55014;BME280;40916;51.632;5.552;2023-03-23T03:46:47;997.3000986586143;;;12.407685315718005;0
55014;BME280;40916;51.632;5.552;2023-03-23T03:47:48;997.3474676980497;;;12.400984544236909;0
55014;BME280;40916;51.632;5.552;2023-03-23T03:48:48;997.2903220259766;;;12.42108566976755;0
55014;BME280;40916;51.632;5.552;2023-03-23T03:49:48;997.3150828073615;;;12.447881625613125;0
55014;BME280;40916;51.632;5.552;2023-03-23T03:50:48;997.2998162943791;;;12.481367669941804;0
55014;BME280;40916;51.632;5.552;2023-03-23T03:51:48;997.3700184168531;;;12.481367669941804;0
55014;BME280;40916;51.632;5.552;2023-03-23T03:52:48;997.3754856346494;;;12.461277229348571;0
55014;BME280;40916;51.632;5.552;2023-03-23T03:53:48;997.3600631128122;;;12.454579625228853;0
55014;BME280;40916;51.632;5.552;2023-03-23T03:54:48;997.3680962576268;;;12.461277229348571;0
55014;BME280;40916;51.632;5.552;2023-03-23T03:55:48;997.2874542567182;;;12.467974438093314;0
55014;BME280;40916;51.632;5.552;2023-03-23T03:56:48;997.3682313703131;;;12.501454555425418;0
55014;BME280;40916;51.632;5.552;2023-03-23T03:57:48;997.2543172070505;;;12.508149394459416;0
55014;BME280;40916;51.632;5.552;2023-03-23T03:58:49;997.3325441802683;;;12.514843838964342;0
55014;BME280;40916;51.632;5.552;2023-03-23T03:59:49;997.2992881307931;;;12.514843838964342;0
55014;BME280;40916;51.632;5.552;2023-03-23T04:00:49;997.3793164034038;;;12.501454555425418;0
55014;BME280;40916;51.632;5.552;2023-03-23T04:01:49;997.3447916604651;;;12.488063693287383;0
55014;BME280;40916;51.632;5.552;2023-03-23T04:02:49;997.3565121418167;;;12.494759321741657;0
55014;BME280;40916;51.632;5.552;2023-03-23T04:03:49;997.4260795470713;;;12.488063693287383;0
55014;BME280;40916;51.632;5.552;2023-03-23T04:04:49;997.3823768418957;;;12.494759321741657;0
55014;BME280;40916;51.632;5.552;2023-03-23T04:05:49;997.3343424035828;;;12.494759321741657;0
55014;BME280;40916;51.632;5.552;2023-03-23T04:06:49;997.3582948875465;;;12.47467125158408;0
55014;BME280;40916;51.632;5.552;2023-03-23T04:07:49;997.4050431475507;;;12.461277229348571;0
55014;BME280;40916;51.632;5.552;2023-03-23T04:08:49;997.34158994243;;;12.454579625228853;0
55014;BME280;40916;51.632;5.552;2023-03-23T04:09:49;997.4279852009741;;;12.508149394459416;0
55014;BME280;40916;51.632;5.552;2023-03-23T04:10:50;997.360841348854;;;12.501454555425418;0
55014;BME280;40916;51.632;5.552;2023-03-23T04:11:50;997.4859332491341;;;12.534924806510908;0
55014;BME280;40916;51.632;5.552;2023-03-23T04:12:50;997.4182156497038;;;12.561693913812903;0
55014;BME280;40916;51.632;5.552;2023-03-23T04:13:50;997.419452591382;;;12.575076105590842;0
55014;BME280;40916;51.632;5.552;2023-03-23T04:14:50;997.3861921655363;;;12.575076105590842;0
55014;BME280;40916;51.632;5.552;2023-03-23T04:15:50;997.4514751182463;;;12.561693913812903;0
55014;BME280;40916;51.632;5.552;2023-03-23T04:16:50;997.3861606435077;;;12.534924806510908;0
55014;BME280;40916;51.632;5.552;2023-03-23T04:17:50;997.3535277653897;;;12.541617674105517;0